Time;durP1;ratioP1;P1;durP2;ratioP2;P2;SDS_P1;SDS_P2;PMS_P1;PMS_P2;Temp;Humidity;BMP_temperature;BMP_pressure;BME280_temperature;BME280_humidity;BME280_pressure;Samples;Min_cycle;Max_cycle;Signal;HPM_P1;HPM_P2
2021/04/18 00:00:18;;;;;;;10.98;4.10;;;;;;;23.37;37.97;99703.09;4484545;32;33357;-56
2021/04/18 00:02:49;;;;;;;14.10;4.80;;;;;;;23.37;37.95;99706.66;4483172;32;34143;-56
2021/04/18 00:05:18;;;;;;;12.32;4.90;;;;;;;23.38;38.01;99702.03;4484415;32;34565;-58
2021/04/18 00:07:45;;;;;;;10.30;4.07;;;;;;;23.35;38.05;99697.88;4484475;32;34957;-58
2021/04/18 00:10:14;;;;;;;13.48;4.37;;;;;;;23.36;37.87;99698.69;4484191;32;33849;-56
2021/04/18 00:12:41;;;;;;;11.77;3.95;;;;;;;23.34;38.17;99696.22;4484200;32;33987;-57
2021/04/18 00:15:10;;;;;;;10.70;4.68;;;;;;;23.35;38.12;99697.03;4483698;32;33607;-58
2021/04/18 00:17:37;;;;;;;8.88;4.12;;;;;;;23.33;38.11;99699.16;4484220;32;34000;-57
2021/04/18 00:20:09;;;;;;;9.95;4.03;;;;;;;23.33;38.13;99697.28;4484260;32;33718;-58
2021/04/18 00:22:38;;;;;;;11.00;4.40;;;;;;;23.32;38.16;99692.06;4484353;32;33109;-58
2021/04/18 00:25:06;;;;;;;9.27;4.45;;;;;;;23.32;38.42;99694.78;4484466;32;33849;-57
2021/04/18 00:27:33;;;;;;;9.55;4.43;;;;;;;23.30;38.27;99692.28;4484297;32;33855;-58
2021/04/18 00:30:00;;;;;;;10.02;4.05;;;;;;;23.29;38.48;99698.78;4484311;32;33665;-57
2021/04/18 00:32:27;;;;;;;10.65;4.05;;;;;;;23.29;38.48;99695.22;4482749;32;33557;-58
2021/04/18 00:34:54;;;;;;;9.75;3.75;;;;;;;23.28;38.32;99690.84;4484296;32;33976;-57
2021/04/18 00:37:23;;;;;;;11.77;3.65;;;;;;;23.28;38.52;99690.84;4480470;31;34944;-60
2021/04/18 00:39:50;;;;;;;11.15;4.10;;;;;;;23.27;38.32;99692.75;4483517;31;34380;-59
2021/04/18 00:42:17;;;;;;;11.82;4.22;;;;;;;23.27;38.48;99694.63;4484182;32;33219;-59
2021/04/18 00:44:44;;;;;;;12.48;4.07;;;;;;;23.27;38.39;99694.63;4485869;31;33838;-59
2021/04/18 00:47:12;;;;;;;11.30;4.00;;;;;;;23.25;38.48;99686.69;4484045;32;34024;-60
2021/04/18 00:49:39;;;;;;;7.50;4.03;;;;;;;23.24;38.61;99684.19;4483336;31;33633;-59
2021/04/18 00:52:06;;;;;;;10.40;4.72;;;;;;;23.25;38.56;99680.41;4484065;32;34138;-60
2021/04/18 00:54:33;;;;;;;10.10;3.80;;;;;;;23.23;38.54;99682.53;4485994;31;33906;-60
2021/04/18 00:57:00;;;;;;;14.73;4.10;;;;;;;23.23;38.53;99679.81;4483593;31;33872;-60
2021/04/18 00:59:28;;;;;;;8.05;3.95;;;;;;;23.21;38.63;99685.47;4483330;31;33568;-59
2021/04/18 01:01:55;;;;;;;9.35;4.45;;;;;;;23.21;38.55;99682.75;4482983;32;33248;-59
2021/04/18 01:04:23;;;;;;;9.40;4.05;;;;;;;23.21;38.80;99679.19;4483540;31;34426;-59
2021/04/18 01:06:51;;;;;;;7.95;3.60;;;;;;;23.20;38.47;99669.38;4484303;32;33924;-59
2021/04/18 01:09:18;;;;;;;11.30;4.03;;;;;;;23.19;38.59;99671.28;4483518;31;33731;-61
2021/04/18 01:11:46;;;;;;;8.88;3.87;;;;;;;23.17;38.67;99674.22;4484163;32;33279;-59
2021/04/18 01:14:13;;;;;;;9.38;3.90;;;;;;;23.19;38.72;99670.44;4483537;31;33789;-60
2021/04/18 01:16:43;;;;;;;10.07;3.87;;;;;;;23.18;38.59;99666.91;4484035;32;33812;-58
2021/04/18 01:19:12;;;;;;;8.02;3.45;;;;;;;23.17;38.63;99663.34;4483253;31;33685;-59
2021/04/18 01:21:41;;;;;;;7.23;3.80;;;;;;;23.17;38.68;99667.94;4484255;32;33380;-58
2021/04/18 01:24:10;;;;;;;10.27;3.75;;;;;;;23.16;38.51;99661.66;4483137;31;34369;-59
2021/04/18 01:26:37;;;;;;;8.48;4.05;;;;;;;23.15;38.74;99662.72;4483105;31;33876;-60
2021/04/18 01:29:05;;;;;;;10.30;3.37;;;;;;;23.15;38.54;99664.63;4483342;31;34431;-60
2021/04/18 01:31:32;;;;;;;7.32;3.15;;;;;;;23.14;38.65;99658.34;4483659;32;34476;-58
2021/04/18 01:33:59;;;;;;;6.18;3.40;;;;;;;23.14;38.53;99657.53;4482511;31;34615;-60
2021/04/18 01:36:27;;;;;;;8.02;3.30;;;;;;;23.14;38.74;99665.69;4483727;32;33828;-58
2021/04/18 01:38:54;;;;;;;8.52;3.83;;;;;;;23.13;38.77;99664.03;4481711;32;34268;-59
2021/04/18 01:41:21;;;;;;;10.43;3.78;;;;;;;23.12;38.75;99655.00;4482031;31;33262;-60
2021/04/18 01:43:49;;;;;;;8.30;3.97;;;;;;;23.12;38.84;99662.34;4483251;31;33432;-60
2021/04/18 01:46:17;;;;;;;9.07;3.83;;;;;;;23.11;38.71;99660.69;4483637;32;33763;-59
2021/04/18 01:48:44;;;;;;;8.95;3.70;;;;;;;23.09;38.72;99663.66;4481767;32;33763;-60
2021/04/18 01:51:11;;;;;;;7.45;3.60;;;;;;;23.09;38.67;99665.53;4483186;32;33225;-60
2021/04/18 01:53:39;;;;;;;7.05;3.83;;;;;;;23.09;38.82;99666.37;4484178;31;32777;-60
2021/04/18 01:56:08;;;;;;;11.25;3.92;;;;;;;23.09;38.80;99662.81;4483867;31;34717;-59
2021/04/18 01:58:36;;;;;;;7.15;3.60;;;;;;;23.07;38.77;99662.19;4482742;31;33341;-58
2021/04/18 02:01:04;;;;;;;12.75;4.18;;;;;;;23.07;38.82;99662.19;4482844;31;33032;-60
2021/04/18 02:03:32;;;;;;;7.75;3.60;;;;;;;23.06;38.70;99661.38;4482133;31;33825;-59
2021/04/18 02:06:02;;;;;;;8.35;3.50;;;;;;;23.06;38.83;99660.53;4482675;31;33955;-59
2021/04/18 02:08:29;;;;;;;9.90;3.20;;;;;;;23.05;38.92;99662.44;4482864;31;33815;-60
2021/04/18 02:10:57;;;;;;;6.20;3.10;;;;;;;23.05;38.82;99665.16;4483260;32;34272;-59
2021/04/18 02:13:25;;;;;;;7.05;3.50;;;;;;;23.05;38.79;99661.59;4483099;31;33850;-60
2021/04/18 02:15:52;;;;;;;7.97;3.47;;;;;;;23.05;38.82;99661.59;4481673;31;33883;-59
2021/04/18 02:18:21;;;;;;;5.93;3.45;;;;;;;23.05;38.84;99656.16;4482855;31;33739;-58
2021/04/18 02:20:49;;;;;;;8.73;3.53;;;;;;;23.05;38.83;99657.00;4482610;31;33353;-59
2021/04/18 02:23:16;;;;;;;8.15;3.50;;;;;;;23.03;39.17;99656.38;4482104;31;33856;-58
2021/04/18 02:25:44;;;;;;;9.93;4.20;;;;;;;23.02;38.99;99653.88;4482529;31;34863;-60
2021/04/18 02:28:12;;;;;;;14.63;4.05;;;;;;;23.04;38.94;99658.06;4482611;31;34674;-59
2021/04/18 02:30:39;;;;;;;30.12;4.20;;;;;;;23.04;38.86;99658.06;4482727;31;34294;-60
2021/04/18 02:33:07;;;;;;;7.90;4.05;;;;;;;23.03;38.67;99652.81;4482457;31;33732;-60
2021/04/18 02:35:34;;;;;;;6.05;3.05;;;;;;;23.01;38.58;99653.06;4482700;31;36045;-60
2021/04/18 02:38:02;;;;;;;10.77;3.67;;;;;;;23.01;38.63;99649.50;4483894;31;34445;-60
2021/04/18 02:40:29;;;;;;;10.05;3.40;;;;;;;23.01;38.67;99655.78;4484539;31;33087;-60
2021/04/18 02:42:56;;;;;;;9.32;3.80;;;;;;;23.00;38.64;99656.00;4483630;31;33796;-58
2021/04/18 02:45:24;;;;;;;9.75;3.53;;;;;;;22.99;38.73;99648.88;4485024;32;33847;-60
2021/04/18 02:47:51;;;;;;;9.63;3.33;;;;;;;22.97;38.74;99643.69;4484719;31;33837;-60
2021/04/18 02:50:19;;;;;;;8.32;3.70;;;;;;;22.98;38.72;99649.94;4484515;31;33348;-59
2021/04/18 02:52:47;;;;;;;8.50;3.67;;;;;;;22.98;38.80;99649.94;4483774;31;33996;-59
2021/04/18 02:55:15;;;;;;;12.82;3.72;;;;;;;22.96;38.77;99650.19;4484182;31;33809;-59
2021/04/18 02:57:44;;;;;;;9.07;3.70;;;;;;;22.96;38.78;99644.75;4484420;31;34250;-59
2021/04/18 03:00:12;;;;;;;7.70;3.37;;;;;;;22.95;38.76;99653.97;4484448;31;33361;-59
2021/04/18 03:02:39;;;;;;;7.28;3.92;;;;;;;22.95;38.84;99656.69;4484943;32;33501;-60
2021/04/18 03:05:08;;;;;;;7.10;3.62;;;;;;;22.93;38.91;99647.91;4483225;31;33915;-59
2021/04/18 03:07:35;;;;;;;8.77;3.83;;;;;;;22.93;38.89;99645.19;4485148;32;34760;-58
2021/04/18 03:10:04;;;;;;;7.03;3.28;;;;;;;22.93;38.92;99637.03;4483818;31;34239;-60
2021/04/18 03:12:31;;;;;;;8.05;3.50;;;;;;;22.92;38.78;99638.91;4484848;32;33860;-59
2021/04/18 03:14:59;;;;;;;10.38;3.85;;;;;;;22.92;38.73;99638.09;4482784;31;34473;-60
2021/04/18 03:17:27;;;;;;;12.75;3.70;;;;;;;22.92;38.78;99638.09;4484530;31;33737;-59
2021/04/18 03:19:55;;;;;;;6.85;3.58;;;;;;;22.91;38.91;99628.28;4484156;31;33015;-59
2021/04/18 03:22:22;;;;;;;7.35;2.95;;;;;;;22.90;38.86;99632.88;4483877;31;34671;-59
2021/04/18 03:24:49;;;;;;;6.28;2.85;;;;;;;22.90;38.89;99627.44;4484552;31;34805;-59
2021/04/18 03:27:17;;;;;;;7.07;3.45;;;;;;;22.90;38.94;99638.31;4483975;31;33697;-60
2021/04/18 03:29:45;;;;;;;6.55;3.00;;;;;;;22.89;38.85;99633.91;4484599;31;32972;-59
2021/04/18 03:32:12;;;;;;;7.93;3.00;;;;;;;22.89;38.81;99630.38;4483484;31;33850;-60
2021/04/18 03:34:40;;;;;;;5.37;2.53;;;;;;;22.88;38.89;99637.69;4483728;31;34917;-59
2021/04/18 03:37:08;;;;;;;8.07;3.37;;;;;;;22.88;38.83;99632.22;4484758;32;33705;-60
2021/04/18 03:39:35;;;;;;;6.12;2.75;;;;;;;22.88;38.80;99631.41;4484344;31;34082;-59
2021/04/18 03:42:04;;;;;;;7.35;3.12;;;;;;;22.86;38.90;99631.66;4484166;31;33783;-59
2021/04/18 03:44:32;;;;;;;6.75;3.22;;;;;;;22.87;38.81;99640.63;4484339;31;34540;-60
2021/04/18 03:47:01;;;;;;;8.70;3.17;;;;;;;22.85;38.93;99629.16;4484530;32;33689;-60
2021/04/18 03:49:29;;;;;;;8.60;3.35;;;;;;;22.84;38.92;99632.91;4483936;31;33027;-59
2021/04/18 03:51:58;;;;;;;8.25;3.47;;;;;;;22.85;38.92;99631.88;4484656;32;33749;-59
2021/04/18 03:54:25;;;;;;;7.12;3.12;;;;;;;22.85;38.97;99640.03;4484159;31;32698;-60
2021/04/18 03:56:52;;;;;;;5.15;3.05;;;;;;;22.83;38.95;99629.38;4484862;32;33803;-59
2021/04/18 03:59:20;;;;;;;8.27;3.37;;;;;;;22.84;38.94;99638.34;4484211;31;33088;-59
2021/04/18 04:01:47;;;;;;;5.03;2.70;;;;;;;22.83;38.93;99637.53;4484288;32;33628;-58
2021/04/18 04:04:16;;;;;;;8.35;3.20;;;;;;;22.84;38.85;99641.06;4483494;31;34859;-60
2021/04/18 04:06:43;;;;;;;7.90;3.03;;;;;;;22.83;38.86;99642.97;4484705;32;33806;-60
2021/04/18 04:09:10;;;;;;;6.95;2.75;;;;;;;22.83;38.91;99633.97;4483931;31;33362;-59
2021/04/18 04:11:38;;;;;;;9.00;3.30;;;;;;;22.83;38.94;99639.41;4484097;31;33759;-60
2021/04/18 04:14:06;;;;;;;7.70;3.55;;;;;;;22.82;38.89;99637.75;4483103;31;33729;-59
2021/04/18 04:16:35;;;;;;;7.35;2.90;;;;;;;22.82;38.99;99637.75;4483942;31;33636;-60
2021/04/18 04:19:02;;;;;;;5.28;2.60;;;;;;;22.81;38.93;99634.22;4484605;32;33323;-58
2021/04/18 04:21:34;;;;;;;7.20;2.80;;;;;;;22.82;39.04;99637.75;4482905;31;34574;-60
2021/04/18 04:24:02;;;;;;;7.00;2.90;;;;;;;22.82;38.98;99637.75;4483318;31;33615;-60
2021/04/18 04:26:29;;;;;;;8.90;3.22;;;;;;;22.81;39.04;99638.81;4482575;31;33406;-59
2021/04/18 04:28:56;;;;;;;8.07;2.97;;;;;;;22.80;39.03;99643.44;4483877;31;33083;-59
2021/04/18 04:31:23;;;;;;;7.18;2.80;;;;;;;22.80;39.10;99635.28;4484136;32;33875;-60
2021/04/18 04:33:51;;;;;;;6.10;2.92;;;;;;;22.80;39.08;99634.41;4483717;31;34941;-59
2021/04/18 04:36:19;;;;;;;5.85;3.03;;;;;;;22.79;39.18;99632.75;4483796;31;33734;-60
2021/04/18 04:38:46;;;;;;;7.60;3.22;;;;;;;22.78;39.13;99640.09;4483567;31;34192;-57
2021/04/18 04:41:13;;;;;;;5.72;2.90;;;;;;;22.77;39.17;99638.44;4482023;32;33701;-57
2021/04/18 04:43:40;;;;;;;5.90;3.25;;;;;;;22.77;39.12;99645.78;4483057;32;33747;-56
2021/04/18 04:46:07;;;;;;;7.85;2.80;;;;;;;22.76;39.16;99639.50;4484239;32;33564;-57
2021/04/18 04:48:35;;;;;;;8.43;2.87;;;;;;;22.76;39.16;99652.28;4484109;32;33352;-58
2021/04/18 04:51:02;;;;;;;6.45;2.62;;;;;;;22.76;39.13;99638.69;4483964;31;33843;-56
2021/04/18 04:53:29;;;;;;;8.73;3.55;;;;;;;22.75;39.08;99639.72;4483781;32;33687;-58
2021/04/18 04:55:57;;;;;;;6.37;3.42;;;;;;;22.75;39.17;99645.97;4484070;32;34117;-58
2021/04/18 04:58:24;;;;;;;5.97;3.25;;;;;;;22.74;39.18;99647.03;4484200;32;33410;-57
2021/04/18 05:00:51;;;;;;;6.03;3.00;;;;;;;22.75;39.15;99639.72;4483064;32;34713;-58
2021/04/18 05:03:20;;;;;;;5.15;2.80;;;;;;;22.74;39.21;99643.50;4484011;32;33849;-58
2021/04/18 05:05:47;;;;;;;6.30;2.67;;;;;;;22.73;39.24;99642.66;4484035;32;33719;-58
2021/04/18 05:08:14;;;;;;;7.12;3.08;;;;;;;22.74;39.23;99647.03;4483822;32;33215;-57
2021/04/18 05:10:41;;;;;;;5.57;2.92;;;;;;;22.73;39.06;99644.56;4484043;32;33829;-57
2021/04/18 05:13:08;;;;;;;6.78;3.20;;;;;;;22.73;39.05;99648.09;4484073;32;33797;-58
2021/04/18 05:15:35;;;;;;;6.18;2.62;;;;;;;22.73;39.27;99639.12;4483698;32;33903;-56
2021/04/18 05:18:04;;;;;;;5.53;2.85;;;;;;;22.73;39.18;99644.56;4484149;32;33178;-58
2021/04/18 05:20:31;;;;;;;6.57;2.72;;;;;;;22.73;39.27;99648.09;4483307;32;33844;-59
2021/04/18 05:22:58;;;;;;;7.70;2.50;;;;;;;22.73;39.08;99650.81;4481988;32;34885;-58
2021/04/18 05:25:26;;;;;;;7.20;2.97;;;;;;;22.74;38.96;99651.66;4480995;32;33495;-57
2021/04/18 05:27:53;;;;;;;6.60;2.70;;;;;;;22.73;39.25;99653.53;4482530;32;33050;-58
2021/04/18 05:30:20;;;;;;;7.78;2.90;;;;;;;22.73;39.27;99650.81;4480000;32;33820;-58
2021/04/18 05:32:48;;;;;;;7.15;2.40;;;;;;;22.73;39.14;99645.38;4482376;32;33800;-58
2021/04/18 05:35:16;;;;;;;12.65;3.12;;;;;;;22.73;39.07;99650.00;4483293;32;33677;-58
2021/04/18 05:37:43;;;;;;;6.50;2.90;;;;;;;22.72;39.05;99654.59;4480759;32;33337;-57
2021/04/18 05:40:10;;;;;;;3.60;2.05;;;;;;;22.73;39.31;99650.00;4482504;32;34567;-54
2021/04/18 05:42:37;;;;;;;4.85;2.47;;;;;;;22.72;39.06;99653.78;4483037;32;33993;-58
2021/04/18 05:45:05;;;;;;;8.43;2.70;;;;;;;22.73;39.08;99647.28;4483396;32;34342;-59
2021/04/18 05:47:32;;;;;;;6.20;2.80;;;;;;;22.71;39.16;99647.50;4483540;32;33581;-56
2021/04/18 05:50:00;;;;;;;7.68;2.62;;;;;;;22.71;39.05;99650.22;4483507;32;33735;-56
2021/04/18 05:52:27;;;;;;;4.82;2.30;;;;;;;22.72;39.12;99651.06;4483235;32;34862;-57
2021/04/18 05:54:54;;;;;;;6.07;2.58;;;;;;;22.71;39.02;99649.38;4483486;32;33644;-57
2021/04/18 05:57:21;;;;;;;5.85;2.83;;;;;;;22.71;39.09;99652.94;4483402;32;33333;-58
2021/04/18 05:59:48;;;;;;;6.47;2.97;;;;;;;22.70;39.11;99653.16;4483128;32;34803;-55
2021/04/18 06:02:16;;;;;;;6.75;2.90;;;;;;;22.70;39.10;99651.25;4483340;32;33863;-57
2021/04/18 06:04:44;;;;;;;7.47;3.40;;;;;;;22.70;39.14;99656.69;4483322;32;34613;-57
2021/04/18 06:07:11;;;;;;;4.45;2.30;;;;;;;22.70;39.08;99653.16;4483195;32;33354;-57
2021/04/18 06:09:38;;;;;;;7.75;2.87;;;;;;;22.69;39.13;99654.22;4483204;32;33861;-57
2021/04/18 06:12:06;;;;;;;6.18;2.40;;;;;;;22.69;39.10;99656.94;4483842;32;34939;-57
2021/04/18 06:14:33;;;;;;;4.80;2.67;;;;;;;22.69;39.12;99651.50;4485111;32;34633;-58
2021/04/18 06:17:00;;;;;;;6.70;2.87;;;;;;;22.69;39.17;99646.06;4485240;32;33124;-58
2021/04/18 06:19:32;;;;;;;5.00;2.47;;;;;;;22.67;39.18;99649.84;4484699;32;33398;-60
2021/04/18 06:21:59;;;;;;;6.22;2.70;;;;;;;22.68;39.24;99650.66;4485027;32;34743;-59
2021/04/18 06:24:26;;;;;;;7.55;2.80;;;;;;;22.67;39.34;99649.00;4485080;32;34499;-59
2021/04/18 06:26:53;;;;;;;7.68;2.55;;;;;;;22.67;39.25;99652.56;4485515;32;33465;-60
2021/04/18 06:29:20;;;;;;;5.53;2.97;;;;;;;22.67;39.21;99658.00;4484586;32;33509;-59
2021/04/18 06:31:47;;;;;;;6.68;2.42;;;;;;;22.67;39.36;99654.44;4485393;32;33710;-58
2021/04/18 06:34:21;;;;;;;6.35;2.70;;;;;;;22.67;39.40;99655.28;4484692;32;33671;-60
2021/04/18 06:36:48;;;;;;;6.62;2.72;;;;;;;22.67;39.31;99657.19;4483172;32;34501;-60
2021/04/18 06:39:16;;;;;;;4.62;2.72;;;;;;;22.66;39.38;99656.34;4483806;32;33608;-57
2021/04/18 06:42:02;;;;;;;4.57;2.35;;;;;;;22.67;39.40;99659.91;4484978;32;34875;-59
2021/04/18 06:44:30;;;;;;;5.00;2.40;;;;;;;22.66;39.41;99653.62;4475650;32;33688;-57
2021/04/18 06:46:58;;;;;;;6.10;2.70;;;;;;;22.66;39.42;99653.62;4484566;32;33374;-58
2021/04/18 06:49:27;;;;;;;5.40;2.55;;;;;;;22.66;39.43;99645.47;4484527;31;34644;-59
2021/04/18 06:51:59;;;;;;;7.68;2.80;;;;;;;22.65;39.22;99651.94;4482655;32;33881;-59
2021/04/18 06:54:31;;;;;;;7.65;2.60;;;;;;;22.66;39.33;99650.03;4484671;32;33779;-59
2021/04/18 06:56:58;;;;;;;5.35;2.58;;;;;;;22.66;39.42;99652.78;4484331;32;34260;-59
2021/04/18 06:59:25;;;;;;;6.93;2.40;;;;;;;22.66;39.28;99656.34;4482380;32;33863;-59
2021/04/18 07:01:53;;;;;;;6.25;2.40;;;;;;;22.66;39.19;99652.78;4483233;32;33513;-58
2021/04/18 07:04:21;;;;;;;4.62;2.37;;;;;;;22.66;39.34;99656.34;4483590;32;33883;-56
2021/04/18 07:06:53;;;;;;;8.98;2.53;;;;;;;22.66;39.34;99650.91;4477504;32;33217;-58
2021/04/18 07:09:24;;;;;;;6.68;2.85;;;;;;;22.66;39.52;99653.62;4468974;32;33714;-56
2021/04/18 07:11:56;;;;;;;6.50;2.47;;;;;;;22.67;39.46;99652.56;4482495;32;33827;-59
2021/04/18 07:14:29;;;;;;;7.28;2.80;;;;;;;22.67;39.46;99651.75;4484637;32;33680;-56
2021/04/18 07:17:05;;;;;;;9.25;2.58;;;;;;;22.67;39.29;99652.56;4483304;32;33205;-56
2021/04/18 07:19:33;;;;;;;4.53;2.12;;;;;;;22.68;39.43;99650.66;4477768;32;34684;-57
2021/04/18 07:22:01;;;;;;;19.80;4.50;;;;;;;22.67;39.51;99641.69;4484303;32;33921;-57
2021/04/18 07:24:29;;;;;;;10.13;2.97;;;;;;;22.68;39.56;99650.66;4484442;32;34516;-58
2021/04/18 07:27:03;;;;;;;7.62;3.15;;;;;;;22.67;39.56;99641.69;4484752;32;33262;-58
2021/04/18 07:29:32;;;;;;;7.60;2.70;;;;;;;22.68;39.46;99647.94;4484750;32;33831;-57
2021/04/18 07:32:17;;;;;;;5.22;2.67;;;;;;;22.67;39.42;99647.12;4474788;32;33915;-55
2021/04/18 07:34:45;;;;;;;7.72;3.25;;;;;;;22.69;39.41;99644.16;4483425;32;34628;-57
2021/04/18 07:37:24;;;;;;;14.68;8.88;;;;;;;22.72;39.09;99649.16;4484636;32;34163;-59
2021/04/18 07:40:02;;;;;;;12.63;7.68;;;;;;;22.67;37.57;99649.00;4484541;32;33855;-58
2021/04/18 07:42:38;;;;;;;18.12;8.10;;;;;;;22.64;37.78;99642.13;4484551;32;34605;-56
2021/04/18 07:45:06;;;;;;;13.98;5.95;;;;;;;22.62;37.77;99646.97;4483157;32;33835;-60
2021/04/18 07:47:38;;;;;;;11.80;5.90;;;;;;;22.60;38.12;99643.63;4484634;32;33390;-57
2021/04/18 07:50:11;;;;;;;11.57;5.97;;;;;;;22.59;38.36;99641.13;4484353;32;33871;-58
2021/04/18 07:52:40;;;;;;;12.82;5.97;;;;;;;22.58;38.42;99643.03;4484251;32;33901;-60
2021/04/18 07:55:09;;;;;;;12.30;6.22;;;;;;;22.58;38.43;99643.03;4484865;32;33712;-59
2021/04/18 07:57:36;;;;;;;11.55;5.20;;;;;;;22.58;38.37;99643.03;4484302;32;33941;-58
2021/04/18 08:00:04;;;;;;;9.07;6.03;;;;;;;22.58;38.38;99643.03;4484425;32;34534;-57
2021/04/18 08:02:39;;;;;;;12.18;5.60;;;;;;;22.58;38.43;99645.75;4484379;32;34015;-58
2021/04/18 08:05:08;;;;;;;8.38;5.57;;;;;;;22.58;38.44;99647.66;4483066;32;33802;-59
2021/04/18 08:08:12;;;;;;;8.23;4.78;;;;;;;22.57;38.45;99654.97;4468702;32;33070;-60
2021/04/18 08:10:44;;;;;;;9.75;4.93;;;;;;;22.61;38.40;99652.63;4457737;31;33925;-60
2021/04/18 08:13:21;;;;;;;9.82;4.90;;;;;;;22.57;38.42;99645.97;4483755;32;34690;-60
2021/04/18 08:16:01;;;;;;;10.00;4.93;;;;;;;22.55;38.46;99640.75;4484140;32;33631;-60
2021/04/18 08:18:48;;;;;;;7.72;4.85;;;;;;;22.56;38.44;99658.72;4483828;32;34357;-60
2021/04/18 08:21:37;;;;;;;9.73;4.87;;;;;;;22.57;38.40;99657.69;4482537;32;33661;-59
2021/04/18 08:24:28;;;;;;;12.45;4.75;;;;;;;22.57;38.45;99652.25;4480875;31;34300;-58
2021/04/18 08:27:08;;;;;;;13.62;5.87;;;;;;;22.51;38.51;99649.59;4482040;32;33913;-59
2021/04/18 08:29:36;;;;;;;10.35;5.12;;;;;;;22.54;38.39;99649.97;4481064;32;33225;-58
2021/04/18 08:32:10;;;;;;;11.27;4.47;;;;;;;22.55;38.47;99650.81;4479569;32;34878;-58
2021/04/18 08:34:40;;;;;;;13.85;4.85;;;;;;;22.57;38.61;99649.53;4482696;32;33939;-60
2021/04/18 08:37:26;;;;;;;17.20;5.43;;;;;;;22.65;38.63;99646.50;4484114;32;34293;-59
2021/04/18 08:40:03;;;;;;;13.20;4.00;;;;;;;22.83;38.50;99648.41;4483938;32;34340;-60
2021/04/18 08:42:33;;;;;;;11.43;3.72;;;;;;;23.01;38.34;99641.34;4468183;32;33924;-60
2021/04/18 08:45:01;;;;;;;9.93;3.62;;;;;;;23.18;38.18;99642.41;4470823;32;33920;-60
2021/04/18 08:47:29;;;;;;;11.12;3.65;;;;;;;23.36;38.00;99652.41;4483104;32;33711;-56
2021/04/18 08:50:03;;;;;;;8.30;3.80;;;;;;;23.52;37.80;99649.06;4482019;32;34145;-58
2021/04/18 08:52:32;;;;;;;9.45;4.05;;;;;;;23.70;37.62;99650.09;4483391;32;34799;-58
2021/04/18 08:55:08;;;;;;;9.38;3.53;;;;;;;23.82;37.49;99649.06;4483252;32;33608;-60
2021/04/18 08:57:35;;;;;;;9.90;3.62;;;;;;;23.96;37.35;99646.97;4482065;32;33533;-58
2021/04/18 09:00:13;;;;;;;10.98;3.70;;;;;;;24.05;37.24;99647.47;4483213;32;33371;-58
2021/04/18 09:02:41;;;;;;;10.98;3.35;;;;;;;24.19;37.09;99649.72;4482963;32;33943;-58
2021/04/18 09:05:14;;;;;;;10.57;3.22;;;;;;;24.31;36.96;99644.31;4482954;32;34555;-58
2021/04/18 09:07:43;;;;;;;9.40;3.58;;;;;;;24.45;36.82;99647.66;4483161;32;33795;-57
2021/04/18 09:10:13;;;;;;;12.02;3.35;;;;;;;24.57;36.66;99640.28;4483142;32;33225;-57
2021/04/18 09:12:40;;;;;;;6.55;3.28;;;;;;;24.69;36.53;99645.75;4483440;32;33800;-57
2021/04/18 09:15:08;;;;;;;8.30;3.10;;;;;;;24.83;36.40;99646.34;4483413;32;33935;-58
2021/04/18 09:17:35;;;;;;;9.05;3.47;;;;;;;24.91;36.30;99648.69;4483527;32;34346;-57
2021/04/18 09:20:16;;;;;;;8.88;3.08;;;;;;;25.00;36.19;99647.25;4483546;32;33023;-58
2021/04/18 09:22:43;;;;;;;14.60;3.67;;;;;;;25.10;36.11;99643.94;4483400;32;35026;-60
2021/04/18 09:25:20;;;;;;;8.05;3.12;;;;;;;25.18;36.04;99643.53;4483233;32;33954;-58
2021/04/18 09:27:49;;;;;;;7.28;3.03;;;;;;;25.26;35.94;99643.16;4483588;32;33732;-56
2021/04/18 09:30:21;;;;;;;5.97;3.08;;;;;;;25.34;35.83;99641.97;4483425;32;33947;-56
2021/04/18 09:33:01;;;;;;;35.13;4.25;;;;;;;25.40;35.76;99641.81;4482897;32;34797;-57
2021/04/18 09:35:29;;;;;;;7.03;3.00;;;;;;;25.47;35.69;99641.69;4483252;32;33673;-56
2021/04/18 09:38:01;;;;;;;7.18;2.65;;;;;;;25.50;35.65;99643.06;4483587;32;33770;-53
2021/04/18 09:40:32;;;;;;;9.75;4.00;;;;;;;25.51;35.66;99640.13;4483732;32;33269;-50
2021/04/18 09:43:02;;;;;;;5.03;2.78;;;;;;;25.52;35.63;99635.47;4483189;32;35407;-57
2021/04/18 09:45:30;;;;;;;10.60;3.20;;;;;;;25.52;35.60;99638.22;4483189;32;33836;-54
2021/04/18 09:48:20;;;;;;;6.18;3.17;;;;;;;25.54;35.57;99631.41;4483388;32;33874;-55
2021/04/18 09:50:59;;;;;;;9.68;3.67;;;;;;;25.53;35.62;99637.97;4483022;32;33255;-56
2021/04/18 09:53:26;;;;;;;9.13;3.20;;;;;;;25.50;35.72;99637.63;4483021;32;34536;-54
2021/04/18 09:55:58;;;;;;;7.87;2.78;;;;;;;25.46;35.75;99629.09;4483283;32;34849;-57
2021/04/18 09:58:25;;;;;;;7.65;2.70;;;;;;;25.43;35.81;99632.31;4483197;32;33776;-53
2021/04/18 10:00:52;;;;;;;10.93;2.83;;;;;;;25.41;35.82;99640.75;4483088;32;33047;-57
2021/04/18 10:03:37;;;;;;;7.18;3.10;;;;;;;25.39;35.88;99633.88;4483330;32;33709;-57
2021/04/18 10:06:06;;;;;;;6.70;3.10;;;;;;;25.37;35.88;99644.22;4482854;32;33831;-59
2021/04/18 10:08:37;;;;;;;6.40;2.70;;;;;;;25.32;35.92;99633.16;4483138;32;33714;-53
2021/04/18 10:11:07;;;;;;;6.05;3.10;;;;;;;25.29;35.96;99639.12;4482900;32;33251;-58
2021/04/18 10:13:44;;;;;;;7.15;2.85;;;;;;;25.25;35.98;99629.75;4482789;32;34815;-59
2021/04/18 10:16:22;;;;;;;6.00;2.90;;;;;;;25.23;36.06;99637.34;4483126;32;33743;-56
2021/04/18 10:19:10;;;;;;;8.23;3.17;;;;;;;25.18;36.12;99629.88;4482459;32;33766;-55
2021/04/18 10:21:38;;;;;;;6.82;2.60;;;;;;;25.16;36.14;99627.41;4481576;32;34054;-57
2021/04/18 10:24:44;;;;;;;6.95;2.78;;;;;;;25.09;36.28;99632.19;4466748;32;33902;-57
2021/04/18 10:27:20;;;;;;;8.57;3.10;;;;;;;25.08;36.34;99633.25;4467095;32;33977;-56
2021/04/18 10:29:48;;;;;;;8.43;2.85;;;;;;;25.00;36.44;99641.81;4467062;32;33653;-57
2021/04/18 10:32:17;;;;;;;6.90;3.00;;;;;;;24.96;36.58;99637.88;4466876;32;33292;-58
2021/04/18 10:34:45;;;;;;;11.35;3.03;;;;;;;24.92;36.73;99633.97;4466872;32;34391;-58
2021/04/18 10:37:12;;;;;;;9.02;3.10;;;;;;;24.90;36.85;99634.22;4453104;32;34897;-60
2021/04/18 10:39:39;;;;;;;9.25;2.70;;;;;;;24.87;36.92;99636.59;4466916;32;34727;-58
2021/04/18 10:42:07;;;;;;;5.95;2.33;;;;;;;24.83;37.11;99633.50;4466601;32;33458;-56
2021/04/18 10:44:34;;;;;;;9.25;2.58;;;;;;;24.78;37.17;99625.22;4466414;32;34861;-57
2021/04/18 10:47:03;;;;;;;9.18;3.10;;;;;;;24.76;37.12;99629.25;4466658;32;33928;-60
2021/04/18 10:49:30;;;;;;;9.70;2.83;;;;;;;24.70;37.13;99620.13;4467627;32;33874;-59
2021/04/18 10:51:58;;;;;;;9.63;2.80;;;;;;;24.67;37.15;99624.16;4482525;32;33243;-58
2021/04/18 10:54:25;;;;;;;8.60;2.78;;;;;;;24.63;37.15;99617.53;4479833;31;33730;-61
2021/04/18 10:56:53;;;;;;;7.60;2.95;;;;;;;24.60;37.14;99622.63;4481257;32;33628;-60
2021/04/18 10:59:21;;;;;;;10.20;2.80;;;;;;;24.58;37.09;99620.16;4482143;32;33594;-60
2021/04/18 11:01:50;;;;;;;9.45;2.90;;;;;;;24.53;37.13;99624.62;4469142;32;33946;-60
2021/04/18 11:04:19;;;;;;;7.93;2.87;;;;;;;24.51;37.12;99619.44;4476066;32;33786;-58
2021/04/18 11:06:46;;;;;;;8.60;3.33;;;;;;;24.48;37.14;99624.53;4484490;32;33595;-59
2021/04/18 11:09:13;;;;;;;9.65;3.30;;;;;;;24.45;37.17;99616.84;4484794;32;34214;-60
2021/04/18 11:11:40;;;;;;;8.77;3.03;;;;;;;24.40;37.21;99618.38;4484718;32;33342;-58
2021/04/18 11:14:08;;;;;;;5.90;2.92;;;;;;;24.38;37.23;99615.03;4484712;32;33543;-58
2021/04/18 11:16:35;;;;;;;6.00;2.80;;;;;;;24.34;37.24;99622.03;4484626;32;33813;-58
2021/04/18 11:19:02;;;;;;;8.40;3.28;;;;;;;24.33;37.25;99619.50;4484696;32;33736;-58
2021/04/18 11:21:30;;;;;;;7.35;3.15;;;;;;;24.29;37.27;99613.69;4484770;32;33990;-57
2021/04/18 11:23:57;;;;;;;9.68;2.78;;;;;;;24.27;37.28;99615.03;4484906;32;33796;-60
2021/04/18 11:26:24;;;;;;;8.07;3.05;;;;;;;24.24;37.26;99619.03;4484791;32;33849;-59
2021/04/18 11:28:52;;;;;;;6.05;3.20;;;;;;;24.22;37.30;99617.63;4484712;32;33746;-60
2021/04/18 11:31:19;;;;;;;6.82;2.55;;;;;;;24.19;37.29;99618.91;4484596;32;33365;-60
2021/04/18 11:33:48;;;;;;;8.10;3.00;;;;;;;24.17;37.31;99612.87;4484564;32;33573;-60
2021/04/18 11:36:18;;;;;;;5.80;2.65;;;;;;;24.15;37.31;99621.31;4484686;32;33843;-60
2021/04/18 11:38:46;;;;;;;8.05;3.30;;;;;;;24.12;37.32;99621.75;4484348;32;33664;-61
2021/04/18 11:41:33;;;;;;;7.15;2.80;;;;;;;24.10;37.34;99623.06;4469250;32;34068;-59